EDT,Max TemperatureF,Mean TemperatureF,Min TemperatureF,Max Dew PointF,MeanDew PointF,Min DewpointF,Max Humidity, Mean Humidity, Min Humidity, Max Sea Level PressureIn, Mean Sea Level PressureIn, Min Sea Level PressureIn, Max VisibilityMiles, Mean VisibilityMiles, Min VisibilityMiles, Max Wind SpeedMPH, Mean Wind SpeedMPH, Max Gust SpeedMPH,PrecipitationIn, CloudCover, Events, WindDirDegrees
2013-9-1,89,84,80,77,75,73,88,74,63,30.01,29.96,29.93,10,10,9,10,7,,0.02,3,,153
2013-9-2,90,86,81,77,75,73,85,73,63,30.04,29.99,29.94,10,10,10,10,6,,0.00,1,,168
2013-9-3,88,82,77,78,76,73,94,81,66,30.02,29.98,29.92,10,9,2,16,6,22,1.42,5,Rain-Thunderstorm,84
2013-9-4,89,84,80,79,77,74,94,79,67,30.03,29.99,29.94,10,10,10,15,9,,0.00,4,,96
2013-9-5,91,86,82,78,76,75,82,75,67,30.04,30.00,29.97,10,10,10,15,12,,0.00,3,,88
2013-9-6,90,86,82,78,76,74,85,75,63,30.03,29.97,29.92,10,10,10,14,10,,0.02,4,,96
2013-9-7,86,80,75,77,75,72,94,83,69,30.01,29.95,29.88,10,9,2,14,8,21,0.28,5,Rain-Thunderstorm,60
2013-9-8,89,83,78,77,74,71,90,79,63,29.95,29.91,29.87,10,10,10,20,6,26,0.00,2,,53
2013-9-9,89,80,73,79,75,71,94,81,67,29.98,29.95,29.91,10,9,2,21,6,29,0.59,4,Rain,77
2013-9-10,89,82,77,77,75,73,94,79,67,30.01,29.97,29.93,10,10,5,17,10,23,0.11,4,Rain,90
2013-9-11,89,83,78,77,75,73,88,80,67,30.00,29.98,29.94,10,10,10,18,10,34,0.07,4,Rain-Thunderstorm,135
2013-9-12,86,82,78,77,76,73,90,80,72,29.99,29.94,29.89,10,10,10,12,5,,0.00,5,,84
2013-9-13,88,82,78,77,74,73,87,77,65,29.91,29.87,29.81,10,10,10,8,6,,0.00,4,,101
2013-9-14,89,84,79,77,75,72,85,76,63,29.96,29.89,29.83,10,10,10,12,6,,0.00,4,,89
2013-9-15,90,81,73,79,76,71,100,85,72,30.02,29.97,29.90,10,9,0,25,10,37,0.77,5,Rain-Thunderstorm,74
2013-9-16,82,78,75,79,76,73,100,88,76,30.04,29.98,29.93,10,8,0,24,11,29,1.11,5,Fog-Rain-Thunderstorm,86
2013-9-17,82,78,75,77,76,75,100,89,82,30.04,29.96,29.90,10,9,0,17,8,31,0.72,5,Fog-Rain,59
2013-9-18,86,82,80,79,77,73,94,87,77,29.99,29.95,29.90,10,10,6,10,6,,0.00,6,Thunderstorm,65
2013-9-19,89,82,77,77,76,73,100,86,69,30.00,29.97,29.93,10,9,2,12,6,,0.53,4,Rain-Thunderstorm,61
2013-9-20,87,82,78,76,74,68,90,78,65,29.99,29.94,29.89,10,10,10,15,8,,0.00,3,,73
2013-9-21,88,82,78,76,74,70,90,76,65,29.90,29.85,29.78,10,10,7,8,5,,0.00,2,,72
2013-9-22,88,82,77,79,76,71,94,80,69,29.88,29.83,29.79,10,10,10,16,7,23,0.01,4,Rain-Thunderstorm,167
2013-9-23,89,84,80,80,77,73,89,82,77,29.98,29.91,29.86,10,10,10,20,10,29,0.00,5,Thunderstorm,165
2013-9-24,89,85,82,80,78,77,91,82,72,29.99,29.94,29.90,10,10,6,12,7,,0.00,3,,183
2013-9-25,90,86,82,79,76,73,87,74,59,29.92,29.89,29.86,10,10,10,14,6,,0.00,3,,224
2013-9-26,89,84,81,77,76,74,82,74,65,29.92,29.88,29.85,10,10,9,13,8,20,0.00,3,,274
2013-9-27,89,84,78,78,74,68,88,72,57,29.93,29.89,29.86,10,10,1,13,7,18,0.02,4,,311
2013-9-28,88,82,75,74,72,68,90,72,61,29.96,29.91,29.87,10,10,10,10,4,,0.00,2,,103
2013-9-29,88,81,75,74,71,69,85,70,57,29.96,29.91,29.87,10,10,10,10,5,,0.00,2,,85
2013-9-30,89,84,80,74,72,60,79,68,47,29.97,29.92,29.89,10,10,5,12,8,,0.00,2,,117